sensor_id;sensor_type;location;lat;lon;timestamp;P1;P2;P0
66004;PMS7003;52775;52.262;21.100;2022-12-18T00:00:10;74;90;
66004;PMS7003;52775;52.262;21.100;2022-12-18T00:00:21;72;93;
66004;PMS7003;52775;52.262;21.100;2022-12-18T00:00:32;70;92;
66004;PMS7003;52775;52.262;21.100;2022-12-18T00:00:43;71;82;
66004;PMS7003;52775;52.262;21.100;2022-12-18T00:00:53;71;89;
66004;PMS7003;52775;52.262;21.100;2022-12-18T00:01:05;71;97;
66004;PMS7003;52775;52.262;21.100;2022-12-18T00:01:16;70;90;
66004;PMS7003;52775;52.262;21.100;2022-12-18T00:01:27;69;81;
66004;PMS7003;52775;52.262;21.100;2022-12-18T00:01:37;71;85;
66004;PMS7003;52775;52.262;21.100;2022-12-18T00:01:49;71;99;
66004;PMS7003;52775;52.262;21.100;2022-12-18T00:01:59;65;93;
66004;PMS7003;52775;52.262;21.100;2022-12-18T00:02:11;65;89;
66004;PMS7003;52775;52.262;21.100;2022-12-18T00:02:22;70;91;
66004;PMS7003;52775;52.262;21.100;2022-12-18T00:02:33;67;79;
66004;PMS7003;52775;52.262;21.100;2022-12-18T00:02:44;65;80;
66004;PMS7003;52775;52.262;21.100;2022-12-18T00:02:55;69;90;
66004;PMS7003;52775;52.262;21.100;2022-12-18T00:03:05;69;88;
66004;PMS7003;52775;52.262;21.100;2022-12-18T00:03:17;67;83;
66004;PMS7003;52775;52.262;21.100;2022-12-18T00:03:28;64;82;
66004;PMS7003;52775;52.262;21.100;2022-12-18T00:03:39;65;84;
66004;PMS7003;52775;52.262;21.100;2022-12-18T00:03:50;80;91;
66004;PMS7003;52775;52.262;21.100;2022-12-18T00:04:02;73;87;
66004;PMS7003;52775;52.262;21.100;2022-12-18T00:04:14;73;88;
66004;PMS7003;52775;52.262;21.100;2022-12-18T00:04:23;65;80;
66004;PMS7003;52775;52.262;21.100;2022-12-18T00:04:34;64;83;
66004;PMS7003;52775;52.262;21.100;2022-12-18T00:04:45;72;93;
66004;PMS7003;52775;52.262;21.100;2022-12-18T00:04:56;74;89;
66004;PMS7003;52775;52.262;21.100;2022-12-18T00:05:08;73;103;
66004;PMS7003;52775;52.262;21.100;2022-12-18T00:05:18;82;107;
66004;PMS7003;52775;52.262;21.100;2022-12-18T00:05:29;74;104;
66004;PMS7003;52775;52.262;21.100;2022-12-18T00:05:47;73;100;
66004;PMS7003;52775;52.262;21.100;2022-12-18T00:05:51;64;80;
66004;PMS7003;52775;52.262;21.100;2022-12-18T00:06:02;70;94;
66004;PMS7003;52775;52.262;21.100;2022-12-18T00:06:13;70;88;
66004;PMS7003;52775;52.262;21.100;2022-12-18T00:06:24;80;100;
66004;PMS7003;52775;52.262;21.100;2022-12-18T00:06:35;70;83;
66004;PMS7003;52775;52.262;21.100;2022-12-18T00:06:46;73;88;
66004;PMS7003;52775;52.262;21.100;2022-12-18T00:06:57;72;97;
66004;PMS7003;52775;52.262;21.100;2022-12-18T00:07:08;73;92;
66004;PMS7003;52775;52.262;21.100;2022-12-18T00:07:20;74;94;
66004;PMS7003;52775;52.262;21.100;2022-12-18T00:07:30;62;80;
66004;PMS7003;52775;52.262;21.100;2022-12-18T00:07:42;72;83;
66004;PMS7003;52775;52.262;21.100;2022-12-18T00:07:53;74;102;
66004;PMS7003;52775;52.262;21.100;2022-12-18T00:08:04;71;98;
66004;PMS7003;52775;52.262;21.100;2022-12-18T00:08:15;68;92;
66004;PMS7003;52775;52.262;21.100;2022-12-18T00:08:27;71;88;
66004;PMS7003;52775;52.262;21.100;2022-12-18T00:08:37;78;92;
66004;PMS7003;52775;52.262;21.100;2022-12-18T00:08:48;67;89;
66004;PMS7003;52775;52.262;21.100;2022-12-18T00:08:59;65;87;
66004;PMS7003;52775;52.262;21.100;2022-12-18T00:09:09;65;85;
66004;PMS7003;52775;52.262;21.100;2022-12-18T00:09:21;63;87;
66004;PMS7003;52775;52.262;21.100;2022-12-18T00:09:33;68;91;
66004;PMS7003;52775;52.262;21.100;2022-12-18T00:09:42;70;87;
66004;PMS7003;52775;52.262;21.100;2022-12-18T00:09:53;68;89;
66004;PMS7003;52775;52.262;21.100;2022-12-18T00:10:05;70;93;
66004;PMS7003;52775;52.262;21.100;2022-12-18T00:10:16;74;84;
66004;PMS7003;52775;52.262;21.100;2022-12-18T00:10:27;72;94;
66004;PMS7003;52775;52.262;21.100;2022-12-18T00:10:38;83;97;
66004;PMS7003;52775;52.262;21.100;2022-12-18T00:10:50;80;100;
66004;PMS7003;52775;52.262;21.100;2022-12-18T00:11:04;71;81;
66004;PMS7003;52775;52.262;21.100;2022-12-18T00:11:15;74;106;
66004;PMS7003;52775;52.262;21.100;2022-12-18T00:11:22;69;98;
66004;PMS7003;52775;52.262;21.100;2022-12-18T00:11:32;72;93;
66004;PMS7003;52775;52.262;21.100;2022-12-18T00:11:43;73;87;
66004;PMS7003;52775;52.262;21.100;2022-12-18T00:11:54;87;98;
66004;PMS7003;52775;52.262;21.100;2022-12-18T00:12:06;80;100;
66004;PMS7003;52775;52.262;21.100;2022-12-18T00:12:17;71;94;
66004;PMS7003;52775;52.262;21.100;2022-12-18T00:12:28;71;99;
66004;PMS7003;52775;52.262;21.100;2022-12-18T00:12:39;78;107;
66004;PMS7003;52775;52.262;21.100;2022-12-18T00:12:50;72;100;
66004;PMS7003;52775;52.262;21.100;2022-12-18T00:13:01;83;99;
66004;PMS7003;52775;52.262;21.100;2022-12-18T00:13:12;80;117;
66004;PMS7003;52775;52.262;21.100;2022-12-18T00:13:23;83;99;
66004;PMS7003;52775;52.262;21.100;2022-12-18T00:13:34;85;93;
66004;PMS7003;52775;52.262;21.100;2022-12-18T00:13:46;78;102;
66004;PMS7003;52775;52.262;21.100;2022-12-18T00:13:57;78;93;
66004;PMS7003;52775;52.262;21.100;2022-12-18T00:14:08;74;93;
66004;PMS7003;52775;52.262;21.100;2022-12-18T00:14:19;71;92;
66004;PMS7003;52775;52.262;21.100;2022-12-18T00:14:30;72;109;
66004;PMS7003;52775;52.262;21.100;2022-12-18T00:14:40;72;101;
66004;PMS7003;52775;52.262;21.100;2022-12-18T00:14:51;80;97;
66004;PMS7003;52775;52.262;21.100;2022-12-18T00:15:03;79;92;
66004;PMS7003;52775;52.262;21.100;2022-12-18T00:15:14;81;94;
66004;PMS7003;52775;52.262;21.100;2022-12-18T00:15:25;83;110;
66004;PMS7003;52775;52.262;21.100;2022-12-18T00:15:36;79;106;
66004;PMS7003;52775;52.262;21.100;2022-12-18T00:15:47;71;100;
66004;PMS7003;52775;52.262;21.100;2022-12-18T00:16:02;81;93;
66004;PMS7003;52775;52.262;21.100;2022-12-18T00:16:09;74;88;
66004;PMS7003;52775;52.262;21.100;2022-12-18T00:16:20;79;91;
66004;PMS7003;52775;52.262;21.100;2022-12-18T00:16:31;80;92;
66004;PMS7003;52775;52.262;21.100;2022-12-18T00:16:43;83;101;
66004;PMS7003;52775;52.262;21.100;2022-12-18T00:16:53;78;107;
66004;PMS7003;52775;52.262;21.100;2022-12-18T00:17:04;79;85;
66004;PMS7003;52775;52.262;21.100;2022-12-18T00:17:15;81;99;
66004;PMS7003;52775;52.262;21.100;2022-12-18T00:17:26;78;85;
66004;PMS7003;52775;52.262;21.100;2022-12-18T00:17:37;81;102;
66004;PMS7003;52775;52.262;21.100;2022-12-18T00:17:48;78;100;
66004;PMS7003;52775;52.262;21.100;2022-12-18T00:17:58;73;97;
66004;PMS7003;52775;52.262;21.100;2022-12-18T00:18:09;72;88;
66004;PMS7003;52775;52.262;21.100;2022-12-18T00:18:21;72;93;
66004;PMS7003;52775;52.262;21.100;2022-12-18T00:18:32;72;93;
66004;PMS7003;52775;52.262;21.100;2022-12-18T00:18:43;78;91;
66004;PMS7003;52775;52.262;21.100;2022-12-18T00:18:54;81;93;
66004;PMS7003;52775;52.262;21.100;2022-12-18T00:19:05;80;90;
66004;PMS7003;52775;52.262;21.100;2022-12-18T00:19:20;73;87;
66004;PMS7003;52775;52.262;21.100;2022-12-18T00:19:26;79;87;
66004;PMS7003;52775;52.262;21.100;2022-12-18T00:19:38;82;99;
66004;PMS7003;52775;52.262;21.100;2022-12-18T00:19:48;83;101;
66004;PMS7003;52775;52.262;21.100;2022-12-18T00:20:00;80;101;
66004;PMS7003;52775;52.262;21.100;2022-12-18T00:20:11;72;83;
66004;PMS7003;52775;52.262;21.100;2022-12-18T00:20:23;74;88;
66004;PMS7003;52775;52.262;21.100;2022-12-18T00:20:36;74;101;
66004;PMS7003;52775;52.262;21.100;2022-12-18T00:20:44;71;110;
66004;PMS7003;52775;52.262;21.100;2022-12-18T00:20:57;73;97;
66004;PMS7003;52775;52.262;21.100;2022-12-18T00:21:07;72;101;
66004;PMS7003;52775;52.262;21.100;2022-12-18T00:21:17;64;83;
66004;PMS7003;52775;52.262;21.100;2022-12-18T00:21:28;64;74;
66004;PMS7003;52775;52.262;21.100;2022-12-18T00:21:39;72;83;
66004;PMS7003;52775;52.262;21.100;2022-12-18T00:21:50;83;94;
66004;PMS7003;52775;52.262;21.100;2022-12-18T00:22:01;74;89;
66004;PMS7003;52775;52.262;21.100;2022-12-18T00:22:12;71;109;
66004;PMS7003;52775;52.262;21.100;2022-12-18T00:22:23;73;94;
66004;PMS7003;52775;52.262;21.100;2022-12-18T00:22:34;79;88;
66004;PMS7003;52775;52.262;21.100;2022-12-18T00:22:45;80;84;
66004;PMS7003;52775;52.262;21.100;2022-12-18T00:22:56;89;119;
66004;PMS7003;52775;52.262;21.100;2022-12-18T00:23:06;79;89;
66004;PMS7003;52775;52.262;21.100;2022-12-18T00:23:18;72;100;
66004;PMS7003;52775;52.262;21.100;2022-12-18T00:23:29;78;90;
66004;PMS7003;52775;52.262;21.100;2022-12-18T00:23:41;83;99;
66004;PMS7003;52775;52.262;21.100;2022-12-18T00:23:51;70;88;
66004;PMS7003;52775;52.262;21.100;2022-12-18T00:24:01;71;89;
66004;PMS7003;52775;52.262;21.100;2022-12-18T00:24:13;70;84;
66004;PMS7003;52775;52.262;21.100;2022-12-18T00:24:24;71;89;
66004;PMS7003;52775;52.262;21.100;2022-12-18T00:24:35;73;93;
66004;PMS7003;52775;52.262;21.100;2022-12-18T00:24:46;70;89;
66004;PMS7003;52775;52.262;21.100;2022-12-18T00:24:57;72;94;
66004;PMS7003;52775;52.262;21.100;2022-12-18T00:25:09;78;97;
66004;PMS7003;52775;52.262;21.100;2022-12-18T00:25:19;67;93;
66004;PMS7003;52775;52.262;21.100;2022-12-18T00:25:32;71;90;
66004;PMS7003;52775;52.262;21.100;2022-12-18T00:25:41;69;82;
66004;PMS7003;52775;52.262;21.100;2022-12-18T00:25:51;73;87;
66004;PMS7003;52775;52.262;21.100;2022-12-18T00:26:04;73;88;
66004;PMS7003;52775;52.262;21.100;2022-12-18T00:26:14;67;82;
66004;PMS7003;52775;52.262;21.100;2022-12-18T00:26:25;70;83;
66004;PMS7003;52775;52.262;21.100;2022-12-18T00:26:35;88;103;
66004;PMS7003;52775;52.262;21.100;2022-12-18T00:26:47;78;92;
66004;PMS7003;52775;52.262;21.100;2022-12-18T00:26:57;64;81;
66004;PMS7003;52775;52.262;21.100;2022-12-18T00:27:09;69;85;
66004;PMS7003;52775;52.262;21.100;2022-12-18T00:27:21;71;81;
66004;PMS7003;52775;52.262;21.100;2022-12-18T00:27:31;68;97;
66004;PMS7003;52775;52.262;21.100;2022-12-18T00:27:43;70;85;
66004;PMS7003;52775;52.262;21.100;2022-12-18T00:27:53;73;91;
66004;PMS7003;52775;52.262;21.100;2022-12-18T00:28:04;79;102;
66004;PMS7003;52775;52.262;21.100;2022-12-18T00:28:17;71;98;
66004;PMS7003;52775;52.262;21.100;2022-12-18T00:28:26;72;94;
66004;PMS7003;52775;52.262;21.100;2022-12-18T00:28:37;73;93;
66004;PMS7003;52775;52.262;21.100;2022-12-18T00:28:49;70;73;
66004;PMS7003;52775;52.262;21.100;2022-12-18T00:28:59;69;84;
66004;PMS7003;52775;52.262;21.100;2022-12-18T00:29:10;69;85;
66004;PMS7003;52775;52.262;21.100;2022-12-18T00:29:21;65;83;
66004;PMS7003;52775;52.262;21.100;2022-12-18T00:29:32;69;92;
66004;PMS7003;52775;52.262;21.100;2022-12-18T00:29:43;68;93;
66004;PMS7003;52775;52.262;21.100;2022-12-18T00:29:54;69;90;
66004;PMS7003;52775;52.262;21.100;2022-12-18T00:30:05;63;80;
66004;PMS7003;52775;52.262;21.100;2022-12-18T00:30:16;69;80;
66004;PMS7003;52775;52.262;21.100;2022-12-18T00:30:27;69;85;
66004;PMS7003;52775;52.262;21.100;2022-12-18T00:30:38;68;81;
66004;PMS7003;52775;52.262;21.100;2022-12-18T00:30:49;63;81;
66004;PMS7003;52775;52.262;21.100;2022-12-18T00:31:00;65;81;
66004;PMS7003;52775;52.262;21.100;2022-12-18T00:31:12;78;90;
66004;PMS7003;52775;52.262;21.100;2022-12-18T00:31:23;70;79;
66004;PMS7003;52775;52.262;21.100;2022-12-18T00:31:35;69;88;
66004;PMS7003;52775;52.262;21.100;2022-12-18T00:31:44;73;88;
66004;PMS7003;52775;52.262;21.100;2022-12-18T00:31:54;70;88;
66004;PMS7003;52775;52.262;21.100;2022-12-18T00:32:06;68;83;
66004;PMS7003;52775;52.262;21.100;2022-12-18T00:32:17;65;78;
66004;PMS7003;52775;52.262;21.100;2022-12-18T00:32:27;62;72;
66004;PMS7003;52775;52.262;21.100;2022-12-18T00:32:40;78;108;
66004;PMS7003;52775;52.262;21.100;2022-12-18T00:32:49;62;82;
66004;PMS7003;52775;52.262;21.100;2022-12-18T00:33:01;72;74;
66004;PMS7003;52775;52.262;21.100;2022-12-18T00:33:12;68;92;
66004;PMS7003;52775;52.262;21.100;2022-12-18T00:33:23;74;103;
66004;PMS7003;52775;52.262;21.100;2022-12-18T00:33:34;70;99;
66004;PMS7003;52775;52.262;21.100;2022-12-18T00:33:45;68;73;
66004;PMS7003;52775;52.262;21.100;2022-12-18T00:33:56;73;90;
66004;PMS7003;52775;52.262;21.100;2022-12-18T00:34:09;70;90;
66004;PMS7003;52775;52.262;21.100;2022-12-18T00:34:18;72;94;
66004;PMS7003;52775;52.262;21.100;2022-12-18T00:34:28;78;98;
66004;PMS7003;52775;52.262;21.100;2022-12-18T00:34:40;71;91;
66004;PMS7003;52775;52.262;21.100;2022-12-18T00:34:51;88;109;
66004;PMS7003;52775;52.262;21.100;2022-12-18T00:35:02;81;106;
66004;PMS7003;52775;52.262;21.100;2022-12-18T00:35:13;69;94;
66004;PMS7003;52775;52.262;21.100;2022-12-18T00:35:24;72;91;
66004;PMS7003;52775;52.262;21.100;2022-12-18T00:35:34;70;85;
66004;PMS7003;52775;52.262;21.100;2022-12-18T00:35:45;71;88;
66004;PMS7003;52775;52.262;21.100;2022-12-18T00:36:00;67;69;
66004;PMS7003;52775;52.262;21.100;2022-12-18T00:36:10;74;83;
66004;PMS7003;52775;52.262;21.100;2022-12-18T00:36:20;80;101;
66004;PMS7003;52775;52.262;21.100;2022-12-18T00:36:31;85;106;
66004;PMS7003;52775;52.262;21.100;2022-12-18T00:36:41;83;93;
66004;PMS7003;52775;52.262;21.100;2022-12-18T00:36:52;70;89;
66004;PMS7003;52775;52.262;21.100;2022-12-18T00:37:02;69;87;
66004;PMS7003;52775;52.262;21.100;2022-12-18T00:37:14;71;87;
66004;PMS7003;52775;52.262;21.100;2022-12-18T00:37:25;80;98;
66004;PMS7003;52775;52.262;21.100;2022-12-18T00:37:36;73;92;
66004;PMS7003;52775;52.262;21.100;2022-12-18T00:37:47;67;88;
66004;PMS7003;52775;52.262;21.100;2022-12-18T00:37:57;71;88;
66004;PMS7003;52775;52.262;21.100;2022-12-18T00:38:08;69;79;
66004;PMS7003;52775;52.262;21.100;2022-12-18T00:38:20;70;78;
66004;PMS7003;52775;52.262;21.100;2022-12-18T00:38:30;65;85;
66004;PMS7003;52775;52.262;21.100;2022-12-18T00:38:52;65;85;
66004;PMS7003;52775;52.262;21.100;2022-12-18T00:38:53;71;81;
66004;PMS7003;52775;52.262;21.100;2022-12-18T00:39:04;63;71;
66004;PMS7003;52775;52.262;21.100;2022-12-18T00:39:15;60;74;
66004;PMS7003;52775;52.262;21.100;2022-12-18T00:39:26;74;98;
66004;PMS7003;52775;52.262;21.100;2022-12-18T00:39:37;61;72;
66004;PMS7003;52775;52.262;21.100;2022-12-18T00:39:48;61;80;
66004;PMS7003;52775;52.262;21.100;2022-12-18T00:40:00;64;88;
66004;PMS7003;52775;52.262;21.100;2022-12-18T00:40:10;68;90;
66004;PMS7003;52775;52.262;21.100;2022-12-18T00:40:20;64;79;
66004;PMS7003;52775;52.262;21.100;2022-12-18T00:40:32;70;85;
66004;PMS7003;52775;52.262;21.100;2022-12-18T00:40:43;80;89;
66004;PMS7003;52775;52.262;21.100;2022-12-18T00:40:54;78;97;
66004;PMS7003;52775;52.262;21.100;2022-12-18T00:41:06;71;89;
66004;PMS7003;52775;52.262;21.100;2022-12-18T00:41:17;67;82;
66004;PMS7003;52775;52.262;21.100;2022-12-18T00:41:27;68;91;
66004;PMS7003;52775;52.262;21.100;2022-12-18T00:41:37;63;82;
66004;PMS7003;52775;52.262;21.100;2022-12-18T00:41:48;65;87;
66004;PMS7003;52775;52.262;21.100;2022-12-18T00:42:00;61;87;
66004;PMS7003;52775;52.262;21.100;2022-12-18T00:42:11;64;78;
66004;PMS7003;52775;52.262;21.100;2022-12-18T00:42:22;65;73;
66004;PMS7003;52775;52.262;21.100;2022-12-18T00:42:34;65;73;
66004;PMS7003;52775;52.262;21.100;2022-12-18T00:42:44;73;85;
66004;PMS7003;52775;52.262;21.100;2022-12-18T00:42:54;68;78;
66004;PMS7003;52775;52.262;21.100;2022-12-18T00:43:05;68;78;
66004;PMS7003;52775;52.262;21.100;2022-12-18T00:43:17;69;83;
66004;PMS7003;52775;52.262;21.100;2022-12-18T00:43:27;63;74;
66004;PMS7003;52775;52.262;21.100;2022-12-18T00:43:39;62;67;
66004;PMS7003;52775;52.262;21.100;2022-12-18T00:43:50;65;80;
66004;PMS7003;52775;52.262;21.100;2022-12-18T00:44:01;72;92;
66004;PMS7003;52775;52.262;21.100;2022-12-18T00:44:13;63;79;
66004;PMS7003;52775;52.262;21.100;2022-12-18T00:44:24;58;73;
66004;PMS7003;52775;52.262;21.100;2022-12-18T00:44:33;60;79;
66004;PMS7003;52775;52.262;21.100;2022-12-18T00:44:44;62;83;
66004;PMS7003;52775;52.262;21.100;2022-12-18T00:44:55;67;90;
66004;PMS7003;52775;52.262;21.100;2022-12-18T00:45:07;71;90;
66004;PMS7003;52775;52.262;21.100;2022-12-18T00:45:18;67;79;
66004;PMS7003;52775;52.262;21.100;2022-12-18T00:45:31;65;80;
66004;PMS7003;52775;52.262;21.100;2022-12-18T00:45:40;65;73;
66004;PMS7003;52775;52.262;21.100;2022-12-18T00:45:51;65;83;
66004;PMS7003;52775;52.262;21.100;2022-12-18T00:46:02;62;81;
66004;PMS7003;52775;52.262;21.100;2022-12-18T00:46:13;59;79;
66004;PMS7003;52775;52.262;21.100;2022-12-18T00:46:23;71;83;
66004;PMS7003;52775;52.262;21.100;2022-12-18T00:46:34;63;70;
66004;PMS7003;52775;52.262;21.100;2022-12-18T00:46:46;64;83;
66004;PMS7003;52775;52.262;21.100;2022-12-18T00:46:57;64;85;
66004;PMS7003;52775;52.262;21.100;2022-12-18T00:47:08;63;82;
66004;PMS7003;52775;52.262;21.100;2022-12-18T00:47:19;60;72;
66004;PMS7003;52775;52.262;21.100;2022-12-18T00:47:30;59;72;
66004;PMS7003;52775;52.262;21.100;2022-12-18T00:47:41;63;73;
66004;PMS7003;52775;52.262;21.100;2022-12-18T00:47:55;67;79;
66004;PMS7003;52775;52.262;21.100;2022-12-18T00:48:04;59;67;
66004;PMS7003;52775;52.262;21.100;2022-12-18T00:48:14;62;74;
66004;PMS7003;52775;52.262;21.100;2022-12-18T00:48:26;55;65;
66004;PMS7003;52775;52.262;21.100;2022-12-18T00:48:37;58;84;
66004;PMS7003;52775;52.262;21.100;2022-12-18T00:49:04;54;70;
66004;PMS7003;52775;52.262;21.100;2022-12-18T00:49:04;55;82;
66004;PMS7003;52775;52.262;21.100;2022-12-18T00:49:20;54;65;
66004;PMS7003;52775;52.262;21.100;2022-12-18T00:49:31;54;70;
66004;PMS7003;52775;52.262;21.100;2022-12-18T00:49:43;64;83;
66004;PMS7003;52775;52.262;21.100;2022-12-18T00:49:54;60;73;
66004;PMS7003;52775;52.262;21.100;2022-12-18T00:50:05;62;79;
66004;PMS7003;52775;52.262;21.100;2022-12-18T00:50:16;61;69;
66004;PMS7003;52775;52.262;21.100;2022-12-18T00:50:27;61;64;
66004;PMS7003;52775;52.262;21.100;2022-12-18T00:50:38;55;72;
66004;PMS7003;52775;52.262;21.100;2022-12-18T00:50:50;65;73;
66004;PMS7003;52775;52.262;21.100;2022-12-18T00:50:59;62;78;
66004;PMS7003;52775;52.262;21.100;2022-12-18T00:51:10;54;79;
66004;PMS7003;52775;52.262;21.100;2022-12-18T00:51:21;58;68;
66004;PMS7003;52775;52.262;21.100;2022-12-18T00:51:33;59;69;
66004;PMS7003;52775;52.262;21.100;2022-12-18T00:51:43;60;70;
66004;PMS7003;52775;52.262;21.100;2022-12-18T00:51:55;61;70;
66004;PMS7003;52775;52.262;21.100;2022-12-18T00:52:06;63;73;
66004;PMS7003;52775;52.262;21.100;2022-12-18T00:52:20;62;84;
66004;PMS7003;52775;52.262;21.100;2022-12-18T00:52:27;58;78;
66004;PMS7003;52775;52.262;21.100;2022-12-18T00:52:38;61;72;
66004;PMS7003;52775;52.262;21.100;2022-12-18T00:52:50;60;69;
66004;PMS7003;52775;52.262;21.100;2022-12-18T00:53:07;61;74;
66004;PMS7003;52775;52.262;21.100;2022-12-18T00:53:12;53;67;
66004;PMS7003;52775;52.262;21.100;2022-12-18T00:53:23;48;55;
66004;PMS7003;52775;52.262;21.100;2022-12-18T00:53:33;64;90;
66004;PMS7003;52775;52.262;21.100;2022-12-18T00:53:44;58;71;
66004;PMS7003;52775;52.262;21.100;2022-12-18T00:53:56;55;70;
66004;PMS7003;52775;52.262;21.100;2022-12-18T00:54:07;54;65;
66004;PMS7003;52775;52.262;21.100;2022-12-18T00:54:17;61;71;
66004;PMS7003;52775;52.262;21.100;2022-12-18T00:54:29;55;68;
66004;PMS7003;52775;52.262;21.100;2022-12-18T00:54:40;62;85;
66004;PMS7003;52775;52.262;21.100;2022-12-18T00:54:51;62;90;
66004;PMS7003;52775;52.262;21.100;2022-12-18T00:55:02;61;69;
66004;PMS7003;52775;52.262;21.100;2022-12-18T00:55:14;62;68;
66004;PMS7003;52775;52.262;21.100;2022-12-18T00:55:24;50;62;
66004;PMS7003;52775;52.262;21.100;2022-12-18T00:55:35;48;62;
66004;PMS7003;52775;52.262;21.100;2022-12-18T00:55:46;50;63;
66004;PMS7003;52775;52.262;21.100;2022-12-18T00:55:58;54;65;
66004;PMS7003;52775;52.262;21.100;2022-12-18T00:56:08;53;62;
66004;PMS7003;52775;52.262;21.100;2022-12-18T00:56:19;60;70;
66004;PMS7003;52775;52.262;21.100;2022-12-18T00:56:30;55;68;
66004;PMS7003;52775;52.262;21.100;2022-12-18T00:56:41;53;69;
66004;PMS7003;52775;52.262;21.100;2022-12-18T00:56:52;61;81;
66004;PMS7003;52775;52.262;21.100;2022-12-18T00:57:03;60;74;
66004;PMS7003;52775;52.262;21.100;2022-12-18T00:57:14;61;73;
66004;PMS7003;52775;52.262;21.100;2022-12-18T00:57:26;61;87;
66004;PMS7003;52775;52.262;21.100;2022-12-18T00:57:35;62;83;
66004;PMS7003;52775;52.262;21.100;2022-12-18T00:57:46;62;80;
66004;PMS7003;52775;52.262;21.100;2022-12-18T00:57:58;61;71;
66004;PMS7003;52775;52.262;21.100;2022-12-18T00:58:09;54;68;
66004;PMS7003;52775;52.262;21.100;2022-12-18T00:58:20;52;64;
66004;PMS7003;52775;52.262;21.100;2022-12-18T00:58:31;55;65;
66004;PMS7003;52775;52.262;21.100;2022-12-18T00:58:42;55;63;
66004;PMS7003;52775;52.262;21.100;2022-12-18T00:58:54;61;79;
66004;PMS7003;52775;52.262;21.100;2022-12-18T00:59:04;62;78;
66004;PMS7003;52775;52.262;21.100;2022-12-18T00:59:15;54;64;
66004;PMS7003;52775;52.262;21.100;2022-12-18T00:59:25;64;74;
66004;PMS7003;52775;52.262;21.100;2022-12-18T00:59:44;61;70;
66004;PMS7003;52775;52.262;21.100;2022-12-18T00:59:48;62;72;
66004;PMS7003;52775;52.262;21.100;2022-12-18T00:59:59;69;85;
66004;PMS7003;52775;52.262;21.100;2022-12-18T01:00:11;63;71;
66004;PMS7003;52775;52.262;21.100;2022-12-18T01:00:21;61;84;
66004;PMS7003;52775;52.262;21.100;2022-12-18T01:00:32;53;65;
66004;PMS7003;52775;52.262;21.100;2022-12-18T01:00:42;63;78;
66004;PMS7003;52775;52.262;21.100;2022-12-18T01:00:53;68;83;
66004;PMS7003;52775;52.262;21.100;2022-12-18T01:01:05;64;78;
66004;PMS7003;52775;52.262;21.100;2022-12-18T01:01:16;58;71;
66004;PMS7003;52775;52.262;21.100;2022-12-18T01:01:27;64;85;
66004;PMS7003;52775;52.262;21.100;2022-12-18T01:01:38;63;79;
66004;PMS7003;52775;52.262;21.100;2022-12-18T01:01:49;58;71;
66004;PMS7003;52775;52.262;21.100;2022-12-18T01:01:59;59;78;
66004;PMS7003;52775;52.262;21.100;2022-12-18T01:02:11;63;72;
66004;PMS7003;52775;52.262;21.100;2022-12-18T01:02:21;55;65;
66004;PMS7003;52775;52.262;21.100;2022-12-18T01:02:33;55;69;
66004;PMS7003;52775;52.262;21.100;2022-12-18T01:02:46;54;63;
66004;PMS7003;52775;52.262;21.100;2022-12-18T01:02:54;54;78;
66004;PMS7003;52775;52.262;21.100;2022-12-18T01:03:06;69;81;
66004;PMS7003;52775;52.262;21.100;2022-12-18T01:03:17;63;84;
66004;PMS7003;52775;52.262;21.100;2022-12-18T01:03:27;72;85;
66004;PMS7003;52775;52.262;21.100;2022-12-18T01:03:39;65;81;
66004;PMS7003;52775;52.262;21.100;2022-12-18T01:03:50;65;82;
66004;PMS7003;52775;52.262;21.100;2022-12-18T01:04:02;65;72;
66004;PMS7003;52775;52.262;21.100;2022-12-18T01:04:12;62;72;
66004;PMS7003;52775;52.262;21.100;2022-12-18T01:04:23;60;79;
66004;PMS7003;52775;52.262;21.100;2022-12-18T01:04:34;62;79;
66004;PMS7003;52775;52.262;21.100;2022-12-18T01:04:44;60;78;
66004;PMS7003;52775;52.262;21.100;2022-12-18T01:04:56;59;73;
66004;PMS7003;52775;52.262;21.100;2022-12-18T01:05:08;62;82;
66004;PMS7003;52775;52.262;21.100;2022-12-18T01:05:18;59;72;
66004;PMS7003;52775;52.262;21.100;2022-12-18T01:05:30;64;87;
66004;PMS7003;52775;52.262;21.100;2022-12-18T01:05:40;71;80;
66004;PMS7003;52775;52.262;21.100;2022-12-18T01:05:50;63;85;
66004;PMS7003;52775;52.262;21.100;2022-12-18T01:06:07;62;88;
66004;PMS7003;52775;52.262;21.100;2022-12-18T01:06:13;71;88;
66004;PMS7003;52775;52.262;21.100;2022-12-18T01:06:24;58;67;
66004;PMS7003;52775;52.262;21.100;2022-12-18T01:06:35;63;74;
66004;PMS7003;52775;52.262;21.100;2022-12-18T01:06:48;70;94;
66004;PMS7003;52775;52.262;21.100;2022-12-18T01:06:57;73;93;
66004;PMS7003;52775;52.262;21.100;2022-12-18T01:07:07;64;79;
66004;PMS7003;52775;52.262;21.100;2022-12-18T01:07:18;59;65;
66004;PMS7003;52775;52.262;21.100;2022-12-18T01:07:30;55;64;
66004;PMS7003;52775;52.262;21.100;2022-12-18T01:07:41;53;60;
66004;PMS7003;52775;52.262;21.100;2022-12-18T01:07:52;54;62;
66004;PMS7003;52775;52.262;21.100;2022-12-18T01:08:03;54;62;
66004;PMS7003;52775;52.262;21.100;2022-12-18T01:08:15;58;71;
66004;PMS7003;52775;52.262;21.100;2022-12-18T01:08:26;60;82;
66004;PMS7003;52775;52.262;21.100;2022-12-18T01:08:35;63;79;
66004;PMS7003;52775;52.262;21.100;2022-12-18T01:08:46;59;70;
66004;PMS7003;52775;52.262;21.100;2022-12-18T01:08:57;65;91;
66004;PMS7003;52775;52.262;21.100;2022-12-18T01:09:08;62;79;
66004;PMS7003;52775;52.262;21.100;2022-12-18T01:09:20;59;72;
66004;PMS7003;52775;52.262;21.100;2022-12-18T01:09:32;62;64;
66004;PMS7003;52775;52.262;21.100;2022-12-18T01:09:43;63;85;
66004;PMS7003;52775;52.262;21.100;2022-12-18T01:09:53;58;69;
66004;PMS7003;52775;52.262;21.100;2022-12-18T01:10:05;60;78;
66004;PMS7003;52775;52.262;21.100;2022-12-18T01:10:14;54;69;
66004;PMS7003;52775;52.262;21.100;2022-12-18T01:10:26;64;73;
66004;PMS7003;52775;52.262;21.100;2022-12-18T01:10:41;62;68;
66004;PMS7003;52775;52.262;21.100;2022-12-18T01:10:48;54;71;
66004;PMS7003;52775;52.262;21.100;2022-12-18T01:10:59;62;85;
66004;PMS7003;52775;52.262;21.100;2022-12-18T01:11:11;63;79;
66004;PMS7003;52775;52.262;21.100;2022-12-18T01:11:21;58;61;
66004;PMS7003;52775;52.262;21.100;2022-12-18T01:11:31;54;64;
66004;PMS7003;52775;52.262;21.100;2022-12-18T01:11:43;61;71;
66004;PMS7003;52775;52.262;21.100;2022-12-18T01:11:53;61;73;